createdAt,value
2023-04-16T00:02:03.160Z,63.92
2023-04-16T00:06:02.741Z,63.95
2023-04-16T00:10:02.722Z,64.18
2023-04-16T00:14:03.364Z,64.04
2023-04-16T00:18:03.362Z,63.99
2023-04-16T00:22:02.702Z,63.77
2023-04-16T00:26:02.627Z,64.31
2023-04-16T00:30:02.651Z,64.36
2023-04-16T00:34:02.786Z,63.57
2023-04-16T00:38:02.737Z,63.36
2023-04-16T00:42:02.607Z,64.09
2023-04-16T00:46:02.560Z,63.84
2023-04-16T00:50:02.714Z,64.50
2023-04-16T00:54:02.709Z,64.47
2023-04-16T01:11:01.806Z,63.50
2023-04-16T02:02:51.227Z,63.75
2023-04-16T02:06:41.598Z,63.47
2023-04-16T02:10:40.706Z,63.44
2023-04-16T02:14:41.084Z,63.72
2023-04-16T02:18:41.092Z,63.57
2023-04-16T02:22:41.528Z,63.08
2023-04-16T02:26:40.772Z,63.10
2023-04-16T02:30:41.059Z,63.30
2023-04-16T02:34:41.122Z,63.53
2023-04-16T02:38:40.693Z,63.34
2023-04-16T02:42:41.083Z,63.51
2023-04-16T02:46:40.566Z,62.99
2023-04-16T02:50:40.570Z,62.94
2023-04-16T02:58:29.787Z,62.56
2023-04-16T03:02:29.564Z,62.82
2023-04-16T03:06:29.618Z,63.12
2023-04-16T03:10:29.872Z,62.83
2023-04-16T03:14:29.803Z,63.06
2023-04-16T03:18:29.891Z,63.06
2023-04-16T03:22:29.521Z,63.31
2023-04-16T03:26:29.815Z,63.64
2023-04-16T03:30:30.291Z,63.08
2023-04-16T03:34:30.058Z,63.12
2023-04-16T03:38:30.289Z,62.77
2023-04-16T03:42:29.995Z,62.76
2023-04-16T03:46:29.973Z,63.42
2023-04-16T03:55:01.072Z,63.46
2023-04-16T04:07:41.932Z,63.99
2023-04-16T04:11:39.977Z,64.00
2023-04-16T04:15:29.654Z,63.60
2023-04-16T04:19:29.608Z,63.74
2023-04-16T04:23:29.535Z,63.93
2023-04-16T04:27:29.596Z,63.53
2023-04-16T04:31:29.498Z,63.51
2023-04-16T04:35:29.503Z,63.67
2023-04-16T04:39:29.512Z,63.73
2023-04-16T04:43:29.474Z,64.06
2023-04-16T04:47:29.471Z,64.22
2023-04-16T04:51:29.446Z,64.40
2023-04-16T04:55:29.528Z,63.84
2023-04-16T04:59:30.015Z,64.01
2023-04-16T05:03:29.702Z,63.12
2023-04-16T05:07:30.020Z,63.36
2023-04-16T05:11:29.862Z,63.05
2023-04-16T05:15:30.000Z,63.11
2023-04-16T05:19:30.008Z,62.58
2023-04-16T05:23:29.879Z,63.34
2023-04-16T05:27:30.001Z,63.49
2023-04-16T05:31:30.100Z,63.23
2023-04-16T05:35:30.578Z,63.09
2023-04-16T05:39:30.504Z,63.74
2023-04-16T05:43:30.075Z,64.04
2023-04-16T05:47:30.535Z,63.82
2023-04-16T05:51:30.130Z,63.75
2023-04-16T05:55:30.496Z,63.91
2023-04-16T05:59:30.456Z,64.09
2023-04-16T06:03:30.343Z,63.87
2023-04-16T06:07:30.490Z,63.94
2023-04-16T06:11:30.263Z,64.23
2023-04-16T06:15:30.168Z,64.18
2023-04-16T06:19:30.122Z,64.31
2023-04-16T06:23:30.193Z,64.48
2023-04-16T06:27:30.648Z,63.76
2023-04-16T06:31:30.019Z,63.27
2023-04-16T06:35:30.057Z,63.02
2023-04-16T06:39:30.032Z,63.96
2023-04-16T06:43:29.883Z,63.21
2023-04-16T06:47:30.046Z,63.08
2023-04-16T06:51:29.850Z,63.31
2023-04-16T06:55:30.079Z,63.86
2023-04-16T06:59:30.066Z,63.70
2023-04-16T07:03:30.639Z,63.31
2023-04-16T07:07:30.519Z,63.30
2023-04-16T07:11:31.015Z,63.55
2023-04-16T07:15:31.050Z,64.01
2023-04-16T07:19:31.036Z,63.20
2023-04-16T07:23:31.545Z,63.52
2023-04-16T07:27:31.267Z,62.83
2023-04-16T07:31:31.564Z,63.65
2023-04-16T07:35:31.476Z,62.22
2023-04-16T07:39:31.602Z,61.32
2023-04-16T07:43:31.999Z,59.88
2023-04-16T07:47:31.746Z,60.01
2023-04-16T07:51:32.051Z,60.53
2023-04-16T07:55:32.005Z,61.43
2023-04-16T07:59:32.003Z,61.97
2023-04-16T08:03:32.195Z,60.24
2023-04-16T08:07:34.381Z,60.17
2023-04-16T08:11:32.006Z,61.47
2023-04-16T08:15:31.987Z,60.96
2023-04-16T08:19:31.966Z,59.95
2023-04-16T08:23:32.018Z,59.45
2023-04-16T08:27:31.873Z,60.06
2023-04-16T08:31:32.105Z,59.97
2023-04-16T08:35:31.842Z,60.71
2023-04-16T08:39:31.767Z,60.27
2023-04-16T08:43:31.728Z,59.93
2023-04-16T08:47:31.743Z,58.92
2023-04-16T08:51:32.031Z,58.45
2023-04-16T08:55:31.807Z,59.26
2023-04-16T08:59:32.061Z,58.24
2023-04-16T09:03:34.844Z,59.28
2023-04-16T09:07:32.189Z,60.37
2023-04-16T09:15:51.985Z,58.58
2023-04-16T09:19:51.813Z,59.67
2023-04-16T09:23:51.808Z,60.23
2023-04-16T09:27:52.122Z,60.58
2023-04-16T09:31:51.774Z,60.27
2023-04-16T09:35:51.690Z,59.54
2023-04-16T09:40:02.192Z,59.85
2023-04-16T09:43:51.658Z,59.09
2023-04-16T09:47:51.708Z,59.23
2023-04-16T09:51:51.659Z,59.98
2023-04-16T09:55:51.541Z,58.37
2023-04-16T09:59:51.474Z,58.60
2023-04-16T10:03:51.766Z,57.87
2023-04-16T10:07:51.493Z,58.07
2023-04-16T10:11:51.524Z,57.92
2023-04-16T10:15:51.459Z,57.68
2023-04-16T10:19:51.433Z,58.03
2023-04-16T10:28:11.092Z,59.47
2023-04-16T10:32:11.051Z,60.04
2023-04-16T10:36:11.051Z,60.29
2023-04-16T10:40:21.453Z,58.97
2023-04-16T10:44:11.005Z,59.40
2023-04-16T11:01:10.639Z,58.52
2023-04-16T11:05:10.580Z,56.76
2023-04-16T11:09:10.565Z,56.77
2023-04-16T11:13:10.611Z,56.33
2023-04-16T11:30:09.356Z,56.25
2023-04-16T11:34:09.332Z,55.93
2023-04-16T11:38:09.311Z,56.93
2023-04-16T11:46:29.063Z,55.45
2023-04-16T11:50:39.291Z,56.01
2023-04-16T12:11:48.172Z,55.87
2023-04-16T12:15:58.634Z,56.54
2023-04-16T12:19:48.666Z,56.96
2023-04-16T12:23:48.079Z,57.07
2023-04-16T12:27:49.479Z,55.16
2023-04-16T12:31:48.094Z,55.40
2023-04-16T12:35:48.065Z,55.21
2023-04-16T12:39:48.182Z,55.21
2023-04-16T12:43:48.094Z,55.08
2023-04-16T12:47:47.896Z,55.39
2023-04-16T12:51:47.913Z,54.67
2023-04-16T12:55:48.089Z,54.93
2023-04-16T12:59:47.768Z,53.41
2023-04-16T13:16:47.493Z,53.61
2023-04-16T13:20:47.138Z,54.20
2023-04-16T13:24:47.115Z,53.84
2023-04-16T13:33:07.096Z,53.91
2023-04-16T13:41:26.885Z,54.28
2023-04-16T13:45:27.270Z,53.86
2023-04-16T13:49:27.152Z,53.48
2023-04-16T13:53:26.767Z,54.24
2023-04-16T13:57:27.154Z,53.87
2023-04-16T14:01:26.732Z,53.97
2023-04-16T14:05:27.392Z,53.47
2023-04-16T14:09:26.683Z,53.21
2023-04-16T14:13:26.580Z,52.62
2023-04-16T14:17:26.848Z,53.33
2023-04-16T14:21:26.671Z,52.32
2023-04-16T14:25:26.687Z,52.50
2023-04-16T14:29:26.628Z,51.62
2023-04-16T14:33:26.415Z,51.23
2023-04-16T14:37:26.658Z,52.20
2023-04-16T14:41:26.687Z,51.46
2023-04-16T14:45:26.278Z,51.73
2023-04-16T14:49:26.689Z,50.81
2023-04-16T14:53:26.203Z,51.27
2023-04-16T14:57:26.168Z,50.72
2023-04-16T15:01:26.366Z,50.79
2023-04-16T15:05:26.337Z,51.54
2023-04-16T15:09:26.253Z,51.29
2023-04-16T15:13:26.706Z,51.40
2023-04-16T15:17:26.521Z,51.47
2023-04-16T15:21:26.756Z,51.47
2023-04-16T15:25:26.608Z,51.24
2023-04-16T15:29:26.630Z,51.31
2023-04-16T15:33:27.341Z,51.39
2023-04-16T15:37:26.817Z,51.47
2023-04-16T15:41:26.973Z,51.32
2023-04-16T15:45:27.165Z,51.54
2023-04-16T15:49:27.138Z,51.26
2023-04-16T15:53:27.683Z,51.89
2023-04-16T15:57:27.662Z,51.60
2023-04-16T16:01:27.608Z,52.03
2023-04-16T16:05:27.888Z,51.96
2023-04-16T16:09:27.692Z,52.00
2023-04-16T16:13:27.828Z,52.29
2023-04-16T16:26:07.805Z,53.98
2023-04-16T16:30:07.752Z,53.65
2023-04-16T16:34:09.068Z,53.39
2023-04-16T16:38:08.219Z,53.41
2023-04-16T16:42:08.133Z,53.39
2023-04-16T16:46:07.762Z,53.35
2023-04-16T16:50:07.707Z,53.11
2023-04-16T16:54:08.237Z,53.01
2023-04-16T16:58:07.576Z,53.18
2023-04-16T17:02:07.732Z,53.70
2023-04-16T17:06:07.575Z,53.74
2023-04-16T17:10:07.642Z,54.19
2023-04-16T17:14:07.646Z,54.22
2023-04-16T17:18:07.829Z,54.31
2023-04-16T17:22:07.430Z,54.13
2023-04-16T17:34:01.883Z,56.96
2023-04-16T17:37:51.521Z,55.68
2023-04-16T17:41:51.451Z,55.56
2023-04-16T17:50:21.322Z,55.79
2023-04-16T17:54:21.328Z,55.53
2023-04-16T17:58:11.341Z,55.37
2023-04-16T18:09:46.070Z,57.60
2023-04-16T18:20:23.161Z,58.25
2023-04-16T18:34:20.972Z,57.59
2023-04-16T18:48:08.187Z,59.35
2023-04-16T19:21:40.775Z,60.95
2023-04-16T19:39:14.452Z,62.23
2023-04-16T19:51:42.798Z,62.09
2023-04-16T19:56:27.398Z,61.91
2023-04-16T20:00:27.646Z,60.90
2023-04-16T20:17:01.313Z,62.80
2023-04-16T20:27:37.827Z,62.73
2023-04-16T20:31:27.518Z,61.10
2023-04-16T20:35:27.284Z,61.02
2023-04-16T20:39:27.368Z,60.82
2023-04-16T20:43:27.242Z,60.80
2023-04-16T20:47:27.108Z,60.79
2023-04-16T20:51:27.331Z,60.72
2023-04-16T20:55:27.328Z,61.04
2023-04-16T20:59:27.023Z,61.02
2023-04-16T21:12:07.085Z,61.44
2023-04-16T21:16:07.020Z,61.23
2023-04-16T21:20:07.103Z,60.99
2023-04-16T21:24:07.146Z,60.92
2023-04-16T21:28:07.732Z,61.01
2023-04-16T21:32:07.359Z,60.82
2023-04-16T21:36:07.525Z,61.18
2023-04-16T21:40:08.167Z,61.28
2023-04-16T21:44:08.136Z,61.29
2023-04-16T21:48:07.863Z,61.23
2023-04-16T21:52:08.040Z,60.86
2023-04-16T21:56:08.694Z,60.84
2023-04-16T22:00:08.387Z,60.48
2023-04-16T22:04:08.544Z,60.56
2023-04-16T22:08:23.387Z,60.54
2023-04-16T22:12:09.731Z,60.65
2023-04-16T22:16:10.133Z,60.91
2023-04-16T22:20:08.494Z,60.82
2023-04-16T22:24:08.526Z,61.34
2023-04-16T22:28:08.557Z,61.64
2023-04-16T22:32:08.570Z,61.34
2023-04-16T22:36:08.657Z,61.53
2023-04-16T22:40:08.556Z,61.72
2023-04-16T22:44:08.596Z,61.89
2023-04-16T22:48:08.258Z,61.68
2023-04-16T22:52:08.574Z,62.00
2023-04-16T23:00:50.914Z,64.39
2023-04-16T23:04:51.147Z,62.88
2023-04-16T23:09:01.126Z,63.09
2023-04-16T23:12:50.762Z,62.82
2023-04-16T23:16:51.268Z,62.81
2023-04-16T23:32:28.683Z,65.08
2023-04-16T23:36:28.577Z,63.57
2023-04-16T23:40:28.672Z,63.72
2023-04-16T23:44:28.669Z,63.46
2023-04-16T23:48:28.541Z,63.45
2023-04-16T23:52:28.704Z,63.28
2023-04-16T23:56:28.741Z,63.11
